Time;durP1;ratioP1;P1;durP2;ratioP2;P2;SDS_P1;SDS_P2;PMS_P1;PMS_P2;Temp;Humidity;BMP_temperature;BMP_pressure;BME280_temperature;BME280_humidity;BME280_pressure;Samples;Min_cycle;Max_cycle;Signal;HPM_P1;HPM_P2
2024/03/29 00:02:08;;;;;;;57.58;54.83;;;10.90;99.90;;;;;;5047616;28;20040;-73
2024/03/29 00:04:34;;;;;;;83.80;79.68;;;10.90;99.90;;;;;;5052238;28;20056;-73
2024/03/29 00:07:00;;;;;;;73.78;70.22;;;10.80;99.90;;;;;;5036669;28;20093;-73
2024/03/29 00:09:26;;;;;;;69.53;66.15;;;10.70;99.90;;;;;;5031902;28;20025;-73
2024/03/29 00:11:52;;;;;;;62.90;59.90;;;10.80;99.90;;;;;;5051417;28;20473;-73
2024/03/29 00:14:18;;;;;;;203.45;193.20;;;10.80;99.90;;;;;;5042389;28;20041;-73
2024/03/29 00:16:44;;;;;;;135.02;128.45;;;10.60;99.90;;;;;;5032130;28;20038;-72
2024/03/29 00:19:10;;;;;;;106.53;101.38;;;10.60;99.90;;;;;;5063349;28;20405;-73
2024/03/29 00:21:36;;;;;;;203.38;193.30;;;10.70;99.90;;;;;;5051421;28;20056;-73
2024/03/29 00:24:03;;;;;;;120.30;114.50;;;10.60;99.90;;;;;;5047921;28;20037;-72
2024/03/29 00:26:29;;;;;;;107.70;102.55;;;10.60;99.90;;;;;;5032413;28;20037;-73
2024/03/29 00:28:55;;;;;;;138.55;131.77;;;10.60;99.90;;;;;;5031936;28;20048;-73
2024/03/29 00:31:21;;;;;;;72.20;68.70;;;10.50;99.90;;;;;;5036844;28;20542;-73
2024/03/29 00:33:47;;;;;;;90.57;86.22;;;10.40;99.90;;;;;;5048446;28;20049;-73
2024/03/29 00:36:13;;;;;;;65.75;62.63;;;10.30;99.90;;;;;;5044023;28;20378;-73
2024/03/29 00:38:39;;;;;;;69.22;65.90;;;10.40;99.90;;;;;;5031291;28;20049;-72
2024/03/29 00:41:05;;;;;;;50.45;47.92;;;10.50;99.90;;;;;;5039323;28;20040;-73
2024/03/29 00:43:31;;;;;;;44.70;42.58;;;10.30;99.90;;;;;;5051855;28;20025;-73
2024/03/29 00:45:58;;;;;;;44.22;42.15;;;10.20;99.90;;;;;;5033348;28;20490;-73
2024/03/29 00:48:24;;;;;;;46.40;44.22;;;10.30;99.90;;;;;;5031856;28;20029;-73
2024/03/29 00:50:50;;;;;;;60.83;57.95;;;10.40;99.90;;;;;;5034991;28;20381;-72
2024/03/29 00:53:16;;;;;;;46.42;44.15;;;10.50;99.90;;;;;;5051494;28;20029;-73
2024/03/29 00:55:42;;;;;;;39.40;37.50;;;10.20;99.90;;;;;;5034239;28;20041;-72
2024/03/29 00:58:08;;;;;;;42.00;40.03;;;10.10;99.90;;;;;;5031706;28;20033;-73
2024/03/29 01:00:34;;;;;;;50.85;48.45;;;10.10;99.90;;;;;;5033185;28;20044;-73
2024/03/29 01:03:00;;;;;;;69.35;66.07;;;10.20;99.90;;;;;;5049898;28;20021;-73
2024/03/29 01:05:26;;;;;;;41.17;39.22;;;10.40;99.90;;;;;;5045175;28;20021;-72
2024/03/29 01:07:53;;;;;;;42.15;40.15;;;10.30;99.90;;;;;;5033242;28;20492;-73
2024/03/29 01:10:19;;;;;;;55.85;53.20;;;10.40;99.90;;;;;;5036227;28;20029;-73
2024/03/29 01:12:46;;;;;;;42.67;40.67;;;10.50;99.90;;;;;;5055171;28;20389;-72
2024/03/29 01:15:12;;;;;;;41.80;39.85;;;10.60;99.90;;;;;;5042186;28;20056;-73
2024/03/29 01:17:38;;;;;;;36.13;34.42;;;10.60;99.90;;;;;;5037759;28;20025;-72
2024/03/29 01:20:05;;;;;;;54.63;52.03;;;10.70;99.90;;;;;;5035036;28;20041;-72
2024/03/29 01:22:31;;;;;;;95.93;91.22;;;10.70;99.90;;;;;;5053935;28;20059;-73
2024/03/29 01:24:57;;;;;;;61.10;58.20;;;10.50;99.90;;;;;;5044616;28;20033;-73
2024/03/29 01:27:24;;;;;;;36.00;34.30;;;10.40;99.90;;;;;;5037347;28;20029;-72
2024/03/29 01:29:50;;;;;;;45.35;43.22;;;10.30;99.90;;;;;;5035087;28;20041;-72
2024/03/29 01:32:16;;;;;;;34.00;32.40;;;10.10;99.90;;;;;;5051513;28;20036;-72
2024/03/29 01:34:42;;;;;;;33.95;32.38;;;10.00;99.90;;;;;;5047246;28;20049;-72
2024/03/29 01:37:08;;;;;;;31.60;30.13;;;9.90;99.90;;;;;;5036954;28;20026;-73
2024/03/29 01:39:34;;;;;;;31.90;30.42;;;10.00;99.90;;;;;;5034829;28;20029;-72
2024/03/29 01:42:01;;;;;;;31.98;30.48;;;10.10;99.90;;;;;;5049543;28;20044;-72
2024/03/29 01:44:27;;;;;;;34.10;32.50;;;10.10;99.90;;;;;;5041861;28;20383;-72
2024/03/29 01:46:53;;;;;;;34.58;32.97;;;10.20;99.90;;;;;;5053697;28;20029;-72
2024/03/29 01:49:19;;;;;;;43.97;41.90;;;10.20;99.90;;;;;;5053287;28;20028;-72
2024/03/29 01:51:45;;;;;;;38.83;37.03;;;10.40;99.90;;;;;;5052054;28;20397;-72
2024/03/29 01:54:11;;;;;;;34.47;32.88;;;10.50;99.90;;;;;;5041724;28;20041;-73
2024/03/29 01:56:38;;;;;;;37.60;35.85;;;10.50;99.90;;;;;;5039909;28;20053;-73
2024/03/29 01:59:05;;;;;;;34.65;33.00;;;10.50;99.90;;;;;;5034423;28;20033;-72
2024/03/29 02:01:31;;;;;;;47.80;45.53;;;10.30;99.90;;;;;;5037635;28;20041;-73
2024/03/29 02:03:57;;;;;;;42.60;40.55;;;10.10;99.90;;;;;;5033938;28;20041;-73
2024/03/29 02:06:23;;;;;;;49.58;47.20;;;9.90;99.90;;;;;;5047483;28;20025;-73
2024/03/29 02:08:50;;;;;;;75.65;72.03;;;9.70;99.90;;;;;;5032977;28;20034;-73
2024/03/29 02:11:16;;;;;;;77.00;72.65;;;9.60;99.90;;;;;;5041288;28;20045;-72
2024/03/29 02:13:42;;;;;;;88.53;84.18;;;9.60;99.90;;;;;;5041833;28;20052;-72
2024/03/29 02:16:08;;;;;;;132.77;126.35;;;9.60;99.90;;;;;;5040517;28;20047;-72
2024/03/29 02:18:34;;;;;;;109.40;103.85;;;9.50;99.90;;;;;;5044838;28;20025;-73
2024/03/29 02:21:00;;;;;;;81.30;77.38;;;9.50;99.90;;;;;;5040253;28;20037;-72
2024/03/29 02:23:27;;;;;;;116.32;110.70;;;9.40;99.90;;;;;;5045075;28;20037;-72
2024/03/29 02:25:54;;;;;;;133.73;127.30;;;9.40;99.90;;;;;;5047856;28;20052;-72
2024/03/29 02:28:21;;;;;;;113.28;107.88;;;9.50;99.90;;;;;;5052518;28;20033;-72
2024/03/29 02:30:48;;;;;;;67.00;63.80;;;9.60;99.90;;;;;;5045427;28;20040;-72
2024/03/29 02:33:14;;;;;;;88.00;83.80;;;9.50;99.90;;;;;;5037611;28;20490;-72
2024/03/29 02:35:40;;;;;;;54.30;51.75;;;9.50;99.90;;;;;;5046629;28;20056;-72
2024/03/29 02:38:07;;;;;;;77.35;73.68;;;9.60;99.90;;;;;;5052333;28;20037;-72
2024/03/29 02:40:33;;;;;;;32.22;30.73;;;9.70;99.90;;;;;;5053190;28;20036;-73
2024/03/29 02:42:59;;;;;;;27.73;26.42;;;9.70;99.90;;;;;;5041427;28;20033;-72
2024/03/29 02:45:25;;;;;;;31.67;30.20;;;9.60;99.90;;;;;;5043804;28;20478;-72
2024/03/29 02:47:51;;;;;;;21.20;20.20;;;9.60;99.90;;;;;;5039260;28;20044;-73
2024/03/29 02:50:17;;;;;;;27.95;26.65;;;9.70;99.90;;;;;;5034036;28;20151;-73
2024/03/29 02:52:43;;;;;;;27.10;25.80;;;9.70;99.90;;;;;;5043899;28;20049;-72
2024/03/29 02:55:13;;;;;;;29.60;28.23;;;9.80;99.90;;;;;;5041493;28;20382;-72
2024/03/29 02:57:39;;;;;;;21.85;20.85;;;9.80;99.90;;;;;;5013920;28;20097;-72
2024/03/29 03:00:06;;;;;;;28.15;26.85;;;9.90;99.90;;;;;;5012470;28;20034;-72
2024/03/29 03:02:32;;;;;;;27.90;26.20;;;9.90;99.90;;;;;;5036397;28;20056;-72
2024/03/29 03:05:00;;;;;;;30.63;29.23;;;9.80;99.90;;;;;;5027385;28;20029;-72
2024/03/29 03:12:56;;;;;;;44.13;42.05;;;9.90;99.90;;;;;;5027841;28;20052;-72
2024/03/29 03:15:22;;;;;;;34.92;33.30;;;9.80;99.90;;;;;;5032701;28;21874;-73
2024/03/29 03:17:48;;;;;;;33.83;32.25;;;9.70;99.90;;;;;;5046497;28;20029;-73
2024/03/29 03:20:16;;;;;;;30.75;29.30;;;9.80;99.90;;;;;;5031307;28;20036;-73
2024/03/29 03:22:42;;;;;;;28.70;27.38;;;9.80;99.90;;;;;;5039670;28;20053;-72
2024/03/29 03:25:08;;;;;;;28.73;27.38;;;9.90;99.90;;;;;;5038855;28;20056;-73
2024/03/29 03:27:34;;;;;;;31.73;30.25;;;9.90;99.90;;;;;;5051141;28;20037;-73
2024/03/29 03:30:00;;;;;;;35.78;34.10;;;10.00;99.90;;;;;;5050621;28;20484;-72
2024/03/29 03:32:26;;;;;;;37.08;35.33;;;10.00;99.90;;;;;;5043485;28;20413;-73
2024/03/29 03:34:53;;;;;;;38.67;36.83;;;9.90;99.90;;;;;;5036695;28;20036;-73
2024/03/29 03:37:19;;;;;;;32.65;31.08;;;9.90;99.90;;;;;;5040436;28;20037;-72
2024/03/29 03:39:45;;;;;;;27.48;26.20;;;9.80;99.90;;;;;;5032636;28;20036;-73
2024/03/29 03:42:11;;;;;;;35.72;34.05;;;9.70;99.90;;;;;;5044865;28;20033;-72
2024/03/29 03:44:37;;;;;;;28.55;27.23;;;9.60;99.90;;;;;;5032401;28;20040;-72
2024/03/29 03:47:03;;;;;;;27.17;25.92;;;9.70;99.90;;;;;;5046930;28;20477;-72
2024/03/29 03:49:29;;;;;;;26.20;24.98;;;9.70;99.90;;;;;;5052309;28;20398;-73
2024/03/29 03:51:55;;;;;;;27.67;26.38;;;9.80;99.90;;;;;;5050265;28;20047;-73
2024/03/29 03:54:21;;;;;;;32.60;31.05;;;9.90;99.90;;;;;;5031911;28;20045;-73
2024/03/29 03:56:48;;;;;;;36.45;34.70;;;9.90;99.90;;;;;;5037896;28;20045;-72
2024/03/29 03:59:17;;;;;;;29.58;28.17;;;10.00;99.90;;;;;;5032689;28;20490;-72
2024/03/29 04:01:43;;;;;;;34.03;32.40;;;10.00;99.90;;;;;;5043966;28;20041;-73
2024/03/29 04:04:09;;;;;;;39.55;37.65;;;10.10;99.90;;;;;;5046143;28;20375;-72
2024/03/29 04:06:35;;;;;;;39.28;37.38;;;10.10;99.90;;;;;;5050896;28;20040;-73
2024/03/29 04:09:01;;;;;;;41.22;39.05;;;10.10;99.90;;;;;;5052202;28;20037;-73
2024/03/29 04:11:28;;;;;;;36.65;34.92;;;10.10;99.90;;;;;;5051483;28;20033;-72
2024/03/29 04:13:54;;;;;;;35.08;33.38;;;10.10;99.90;;;;;;5033373;28;20048;-72
2024/03/29 04:16:20;;;;;;;32.58;31.02;;;10.10;99.90;;;;;;5047879;28;20056;-73
2024/03/29 04:18:46;;;;;;;34.40;32.80;;;10.10;99.90;;;;;;5052020;28;20080;-73
2024/03/29 04:21:13;;;;;;;26.88;25.63;;;10.10;99.90;;;;;;5039767;28;20042;-72
2024/03/29 04:23:39;;;;;;;31.02;29.58;;;10.00;99.90;;;;;;5032049;28;20038;-72
2024/03/29 04:26:05;;;;;;;29.75;28.38;;;10.00;99.90;;;;;;5045378;28;20036;-72
2024/03/29 04:28:31;;;;;;;33.03;31.48;;;10.10;99.90;;;;;;5031969;28;20037;-72
2024/03/29 04:30:58;;;;;;;34.42;32.83;;;10.10;99.90;;;;;;5030981;28;20494;-72
2024/03/29 04:33:24;;;;;;;42.63;40.63;;;10.10;99.90;;;;;;5032993;28;20038;-72
2024/03/29 04:35:59;;;;;;;40.33;38.42;;;10.10;99.90;;;;;;5040354;28;20052;-73
2024/03/29 04:38:26;;;;;;;30.17;28.77;;;10.10;99.90;;;;;;5026493;28;20029;-73
2024/03/29 04:40:53;;;;;;;30.88;29.42;;;10.10;99.90;;;;;;5032598;28;20037;-73
2024/03/29 04:43:22;;;;;;;31.17;29.73;;;10.10;99.90;;;;;;5036971;28;20504;-72
2024/03/29 04:45:48;;;;;;;33.83;32.22;;;10.10;99.90;;;;;;5050706;28;20048;-73
2024/03/29 04:48:14;;;;;;;29.30;27.92;;;10.10;99.90;;;;;;5037383;28;20390;-72
2024/03/29 04:50:40;;;;;;;24.35;23.25;;;10.00;99.90;;;;;;5038903;28;20025;-72
2024/03/29 04:53:09;;;;;;;28.80;27.48;;;10.00;99.90;;;;;;5034337;28;20021;-72
2024/03/29 04:55:35;;;;;;;31.42;29.95;;;10.00;99.90;;;;;;5041091;28;20044;-72
2024/03/29 04:58:02;;;;;;;29.00;27.65;;;10.10;99.90;;;;;;5055524;28;20064;-72
2024/03/29 05:00:28;;;;;;;32.63;30.90;;;10.00;99.90;;;;;;5054104;28;20048;-72
2024/03/29 05:02:54;;;;;;;27.42;26.15;;;10.00;99.90;;;;;;5040125;28;20029;-72
2024/03/29 05:05:20;;;;;;;38.20;36.40;;;9.90;99.90;;;;;;5042573;28;20362;-72
2024/03/29 05:07:46;;;;;;;45.25;43.13;;;9.90;99.90;;;;;;5041242;28;20606;-73
2024/03/29 05:10:12;;;;;;;58.38;55.63;;;10.00;99.90;;;;;;5048294;28;20030;-73
2024/03/29 05:12:39;;;;;;;57.35;54.65;;;10.00;99.90;;;;;;5040366;28;20513;-72
2024/03/29 05:15:05;;;;;;;57.50;54.80;;;10.00;99.90;;;;;;5038150;28;20048;-72
2024/03/29 05:17:31;;;;;;;55.75;53.10;;;10.00;99.90;;;;;;5054453;28;20025;-72
2024/03/29 05:19:57;;;;;;;41.47;39.53;;;10.00;99.90;;;;;;5038596;28;20037;-73
2024/03/29 05:22:24;;;;;;;35.15;33.50;;;10.10;99.90;;;;;;5053166;28;20488;-75
2024/03/29 05:24:54;;;;;;;37.38;35.63;;;10.10;99.90;;;;;;5052941;28;20490;-72
2024/03/29 05:27:20;;;;;;;34.13;32.57;;;10.10;99.90;;;;;;5045779;28;20041;-71
2024/03/29 05:29:46;;;;;;;33.60;32.03;;;10.10;99.90;;;;;;5034494;28;20385;-72
2024/03/29 05:32:12;;;;;;;32.83;31.27;;;10.00;99.90;;;;;;5053510;28;20029;-72
2024/03/29 05:34:39;;;;;;;28.67;27.35;;;10.00;99.90;;;;;;5054264;28;20546;-72
2024/03/29 05:37:05;;;;;;;29.83;28.45;;;10.00;99.90;;;;;;5033588;28;20037;-72
2024/03/29 05:39:31;;;;;;;30.38;28.98;;;10.00;99.90;;;;;;5034907;28;20038;-72
2024/03/29 05:41:58;;;;;;;36.92;35.20;;;10.00;99.90;;;;;;5034681;28;20378;-73
2024/03/29 05:44:24;;;;;;;42.40;40.35;;;10.10;99.90;;;;;;5034327;28;20029;-72
2024/03/29 05:46:50;;;;;;;36.10;34.42;;;10.10;99.90;;;;;;5050037;28;20033;-72
2024/03/29 05:49:16;;;;;;;30.38;28.95;;;10.00;99.90;;;;;;5050863;28;20033;-72
2024/03/29 05:51:42;;;;;;;25.77;24.58;;;10.00;99.90;;;;;;5035462;28;20025;-72
2024/03/29 05:54:09;;;;;;;31.10;29.65;;;10.00;99.90;;;;;;5053529;28;20457;-72
2024/03/29 05:56:35;;;;;;;32.85;31.33;;;10.00;99.90;;;;;;5037707;28;20034;-69
2024/03/29 05:59:01;;;;;;;28.85;27.45;;;10.00;99.90;;;;;;5050027;28;20040;-72
2024/03/29 06:01:27;;;;;;;21.30;20.30;;;10.00;99.90;;;;;;5033765;28;20034;-72
2024/03/29 06:03:54;;;;;;;24.65;23.52;;;10.00;99.90;;;;;;5034191;28;20030;-72
2024/03/29 06:06:24;;;;;;;24.20;23.10;;;9.90;99.90;;;;;;5034773;28;20048;-72
2024/03/29 06:08:51;;;;;;;22.35;21.35;;;9.90;99.90;;;;;;5032547;28;20041;-72
2024/03/29 06:11:17;;;;;;;24.65;23.52;;;9.90;99.90;;;;;;5034327;28;20045;-72
2024/03/29 06:19:04;;;;;;;23.38;22.30;;;10.00;99.90;;;;;;5049182;28;20055;-72
2024/03/29 06:21:38;;;;;;;25.70;24.50;;;10.00;99.90;;;;;;5053656;28;20053;-72
2024/03/29 06:24:06;;;;;;;22.27;21.27;;;10.00;99.90;;;;;;5054020;28;20037;-72
2024/03/29 06:26:32;;;;;;;31.40;29.92;;;10.00;99.90;;;;;;5051492;28;20406;-72
2024/03/29 06:28:58;;;;;;;24.70;23.55;;;10.00;99.90;;;;;;5051382;28;20041;-72
2024/03/29 06:31:24;;;;;;;24.52;23.40;;;9.90;99.90;;;;;;5053056;28;20404;-72
2024/03/29 06:33:51;;;;;;;21.48;20.48;;;10.00;99.90;;;;;;5053700;28;20032;-72
2024/03/29 06:36:17;;;;;;;22.23;21.23;;;10.10;99.90;;;;;;5046129;28;20040;-72
2024/03/29 06:38:43;;;;;;;25.65;24.45;;;10.20;99.90;;;;;;5053652;28;20025;-72
2024/03/29 06:41:09;;;;;;;26.02;24.83;;;10.20;99.90;;;;;;5052581;28;20037;-72
2024/03/29 06:43:35;;;;;;;28.70;27.38;;;10.20;99.90;;;;;;5053435;28;20382;-71
2024/03/29 06:46:03;;;;;;;28.63;27.27;;;10.20;99.90;;;;;;5041450;28;20040;-71
2024/03/29 06:48:32;;;;;;;39.58;37.72;;;10.30;99.90;;;;;;5053285;28;20401;-72
2024/03/29 06:50:58;;;;;;;41.00;39.05;;;10.40;99.90;;;;;;5042171;28;20378;-71
2024/03/29 06:53:25;;;;;;;45.97;43.50;;;10.40;99.90;;;;;;5068499;28;20116;-72
2024/03/29 06:55:51;;;;;;;52.03;49.58;;;10.40;99.90;;;;;;5049257;28;20044;-72
2024/03/29 06:58:17;;;;;;;40.75;38.75;;;10.40;99.90;;;;;;5068415;28;20051;-72
2024/03/29 07:00:46;;;;;;;39.70;37.83;;;10.40;99.90;;;;;;5052073;28;20032;-71
2024/03/29 07:03:12;;;;;;;33.85;32.25;;;10.50;99.90;;;;;;5051813;28;20497;-72
2024/03/29 07:05:38;;;;;;;34.85;33.22;;;10.50;99.90;;;;;;5045243;28;20034;-72
2024/03/29 07:08:04;;;;;;;40.72;38.83;;;10.50;99.90;;;;;;5032456;28;20030;-72
2024/03/29 07:10:30;;;;;;;34.00;32.42;;;10.60;99.90;;;;;;5047839;28;20040;-72
2024/03/29 07:12:57;;;;;;;42.67;40.35;;;10.60;99.90;;;;;;5032826;28;20041;-69
2024/03/29 07:15:23;;;;;;;30.77;29.33;;;10.70;99.90;;;;;;5033552;28;20482;-69
2024/03/29 07:17:50;;;;;;;47.83;45.10;;;10.80;99.90;;;;;;5046826;28;20048;-72
2024/03/29 07:20:17;;;;;;;42.60;40.60;;;10.90;99.90;;;;;;5030182;28;20036;-72
2024/03/29 07:22:45;;;;;;;38.22;36.42;;;11.00;99.90;;;;;;5032777;28;20040;-72
2024/03/29 07:25:11;;;;;;;37.42;35.53;;;11.00;99.90;;;;;;5013218;28;20394;-72
2024/03/29 07:27:37;;;;;;;36.83;35.13;;;11.10;99.90;;;;;;5031978;28;20033;-71
2024/03/29 07:30:04;;;;;;;55.92;53.28;;;11.20;99.90;;;;;;5046715;28;20037;-71
2024/03/29 07:32:31;;;;;;;45.83;43.63;;;11.20;99.90;;;;;;5037855;28;20030;-67
2024/03/29 07:34:58;;;;;;;41.20;39.30;;;11.20;99.90;;;;;;5032451;28;20052;-71
2024/03/29 07:37:24;;;;;;;39.28;37.40;;;11.20;99.90;;;;;;5040568;28;20438;-71
2024/03/29 07:39:50;;;;;;;38.22;36.42;;;11.30;99.90;;;;;;5027822;28;20466;-69
2024/03/29 07:42:16;;;;;;;40.03;38.17;;;11.40;99.90;;;;;;5031642;28;20029;-69
2024/03/29 07:44:43;;;;;;;56.97;54.28;;;11.40;99.90;;;;;;5030368;28;20482;-68
2024/03/29 07:47:09;;;;;;;53.72;51.17;;;11.50;99.90;;;;;;5036981;28;20029;-67
2024/03/29 07:49:35;;;;;;;52.53;50.00;;;11.60;99.90;;;;;;5032215;28;20390;-73
2024/03/29 07:52:05;;;;;;;62.53;59.53;;;11.70;99.90;;;;;;5031665;28;20059;-72
2024/03/29 07:54:34;;;;;;;90.13;85.82;;;11.70;99.90;;;;;;5032702;28;20540;-73
2024/03/29 07:57:01;;;;;;;82.10;78.15;;;11.80;99.90;;;;;;5030485;28;20041;-73
2024/03/29 07:59:28;;;;;;;83.90;79.85;;;12.00;99.90;;;;;;5032127;28;20501;-72
2024/03/29 08:01:55;;;;;;;82.65;78.70;;;12.00;99.90;;;;;;5038427;28;20033;-70
2024/03/29 08:04:21;;;;;;;62.78;59.47;;;12.00;99.90;;;;;;5032077;28;20037;-69
2024/03/29 08:06:48;;;;;;;58.45;55.70;;;12.10;99.90;;;;;;5038387;28;20044;-69
2024/03/29 08:09:14;;;;;;;49.75;47.40;;;12.20;99.90;;;;;;5035845;28;20037;-70
2024/03/29 08:11:41;;;;;;;43.97;41.88;;;12.20;99.90;;;;;;5042138;28;20045;-69
2024/03/29 08:14:07;;;;;;;46.70;44.42;;;12.30;99.90;;;;;;5039341;28;20037;-70
2024/03/29 08:16:33;;;;;;;51.55;49.08;;;12.30;99.90;;;;;;5042806;28;20037;-70
2024/03/29 08:18:59;;;;;;;43.50;41.45;;;12.30;99.90;;;;;;5035792;28;20037;-69
2024/03/29 08:21:28;;;;;;;44.03;41.95;;;12.30;99.90;;;;;;5045718;28;20037;-69
2024/03/29 08:23:56;;;;;;;47.15;44.92;;;12.40;99.90;;;;;;5036670;28;20057;-69
2024/03/29 08:26:22;;;;;;;68.97;65.70;;;12.40;99.90;;;;;;5044803;28;20477;-69
2024/03/29 08:28:48;;;;;;;68.68;65.38;;;12.40;99.90;;;;;;5055947;28;20063;-69
2024/03/29 08:31:15;;;;;;;77.78;74.05;;;12.40;99.90;;;;;;5050502;28;20029;-69
2024/03/29 08:33:43;;;;;;;70.75;67.35;;;12.50;99.90;;;;;;5035943;28;20041;-69
2024/03/29 08:36:10;;;;;;;83.22;79.25;;;12.60;99.90;;;;;;5036332;28;20061;-69
2024/03/29 08:38:42;;;;;;;65.85;62.70;;;12.70;99.90;;;;;;5035960;28;20029;-69
2024/03/29 08:41:09;;;;;;;119.28;113.50;;;12.70;99.90;;;;;;5035628;28;20029;-69
2024/03/29 08:43:35;;;;;;;70.93;67.55;;;12.80;99.90;;;;;;5036263;28;20060;-70
2024/03/29 08:46:01;;;;;;;63.50;60.42;;;12.90;99.90;;;;;;5037027;28;20045;-72
2024/03/29 08:48:27;;;;;;;100.75;95.80;;;12.80;99.90;;;;;;5046728;28;20075;-73
2024/03/29 08:50:54;;;;;;;154.70;147.00;;;12.70;99.90;;;;;;5040521;28;20854;-73
2024/03/29 08:53:21;;;;;;;92.13;87.72;;;12.70;99.90;;;;;;5047837;28;20037;-72
2024/03/29 08:55:50;;;;;;;79.03;75.18;;;12.60;99.90;;;;;;5040138;28;20056;-73
2024/03/29 08:58:18;;;;;;;85.43;81.32;;;12.50;99.90;;;;;;5045480;28;20032;-73
2024/03/29 09:00:55;;;;;;;72.75;69.15;;;12.50;99.90;;;;;;5043524;28;20052;-70
2024/03/29 09:03:22;;;;;;;84.57;80.53;;;12.50;99.90;;;;;;5045329;28;20049;-72
2024/03/29 09:05:48;;;;;;;89.95;85.50;;;12.60;99.90;;;;;;5034687;28;20037;-67
2024/03/29 09:08:15;;;;;;;102.03;96.97;;;12.50;99.90;;;;;;5034120;28;20036;-68
2024/03/29 09:10:41;;;;;;;83.05;79.07;;;12.50;99.90;;;;;;5036579;28;20048;-71
2024/03/29 09:13:09;;;;;;;73.13;69.45;;;12.50;99.90;;;;;;5035413;28;20382;-67
2024/03/29 09:15:35;;;;;;;92.47;87.95;;;12.60;99.90;;;;;;5037042;28;20040;-66
2024/03/29 09:18:09;;;;;;;45.58;43.38;;;12.60;99.90;;;;;;5037076;28;20463;-71
2024/03/29 09:20:36;;;;;;;32.30;30.73;;;12.60;99.90;;;;;;5022511;28;20465;-72
2024/03/29 09:23:03;;;;;;;36.15;34.25;;;12.70;99.90;;;;;;5054979;28;20052;-72
2024/03/29 09:25:30;;;;;;;37.70;35.95;;;12.80;99.90;;;;;;5036745;28;20036;-72
2024/03/29 09:27:56;;;;;;;50.17;47.60;;;12.80;99.90;;;;;;5038832;28;20049;-72
2024/03/29 09:30:22;;;;;;;46.67;44.42;;;12.90;99.90;;;;;;5035091;28;20485;-72
2024/03/29 09:32:50;;;;;;;47.72;45.20;;;12.90;99.90;;;;;;5038265;28;20033;-72
2024/03/29 09:35:17;;;;;;;47.60;45.33;;;13.00;99.90;;;;;;5033619;28;20064;-72
2024/03/29 09:37:43;;;;;;;44.75;42.10;;;13.10;99.90;;;;;;5054571;28;20397;-72
2024/03/29 09:40:10;;;;;;;40.13;37.83;;;13.10;99.90;;;;;;5054528;28;20064;-73
2024/03/29 09:42:37;;;;;;;53.60;50.85;;;13.10;99.90;;;;;;5052857;28;20052;-72
2024/03/29 09:45:03;;;;;;;42.53;40.53;;;13.10;99.90;;;;;;5038060;28;20021;-72
2024/03/29 09:47:30;;;;;;;49.30;46.97;;;13.20;99.90;;;;;;5034259;28;20037;-72
2024/03/29 09:49:56;;;;;;;35.03;33.30;;;13.20;99.90;;;;;;5041808;28;20033;-73
2024/03/29 09:52:22;;;;;;;43.05;41.05;;;13.30;99.90;;;;;;5037375;28;20030;-73
2024/03/29 09:54:48;;;;;;;27.13;25.88;;;13.30;99.90;;;;;;5034412;28;20041;-72
2024/03/29 09:57:14;;;;;;;47.78;45.50;;;13.30;99.90;;;;;;5049478;28;20049;-73
2024/03/29 09:59:40;;;;;;;49.08;46.70;;;13.30;99.90;;;;;;5046431;28;20480;-72
2024/03/29 10:02:17;;;;;;;66.32;63.08;;;13.50;99.90;;;;;;5048016;28;20115;-73
2024/03/29 10:04:44;;;;;;;55.83;53.08;;;13.60;99.90;;;;;;5053792;28;20045;-72
2024/03/29 10:07:12;;;;;;;52.70;50.15;;;13.70;99.90;;;;;;5034400;28;20383;-73
2024/03/29 10:09:38;;;;;;;50.85;48.45;;;13.70;99.90;;;;;;5030302;28;20374;-73
2024/03/29 10:12:04;;;;;;;30.92;29.40;;;13.80;99.90;;;;;;5045925;28;20022;-73
2024/03/29 10:14:31;;;;;;;26.05;24.85;;;13.80;99.90;;;;;;5034357;28;20500;-73
2024/03/29 10:16:58;;;;;;;36.83;35.05;;;13.80;99.90;;;;;;5037095;28;20045;-73
2024/03/29 10:19:24;;;;;;;42.38;40.38;;;13.80;99.90;;;;;;5036508;28;20025;-73
2024/03/29 10:21:50;;;;;;;60.97;58.03;;;13.80;99.90;;;;;;5053359;28;20045;-73
2024/03/29 10:24:20;;;;;;;81.18;77.18;;;13.90;99.90;;;;;;5040044;28;20040;-73
2024/03/29 10:26:47;;;;;;;111.78;106.32;;;14.00;99.90;;;;;;5032896;28;20049;-73
2024/03/29 10:29:14;;;;;;;128.95;122.60;;;14.10;99.90;;;;;;5038487;28;20045;-73
2024/03/29 10:31:40;;;;;;;81.60;77.63;;;14.20;99.90;;;;;;5036046;28;20045;-75
2024/03/29 10:34:08;;;;;;;54.40;51.75;;;14.40;99.90;;;;;;5033320;28;20036;-76
2024/03/29 10:36:35;;;;;;;54.47;51.85;;;14.50;99.90;;;;;;5037577;28;20056;-73
2024/03/29 10:39:12;;;;;;;169.10;160.48;;;14.50;99.90;;;;;;5036671;28;20053;-73
2024/03/29 10:41:42;;;;;;;82.07;78.13;;;14.60;99.90;;;;;;5044933;28;20032;-73
2024/03/29 10:44:10;;;;;;;133.03;126.53;;;14.60;99.90;;;;;;5047387;28;20482;-74
2024/03/29 10:46:36;;;;;;;1999.90;999.90;;;14.70;99.90;;;;;;5043520;28;20040;-75
2024/03/29 10:49:03;;;;;;;1999.90;999.90;;;14.70;99.90;;;;;;5050123;28;20025;-73
2024/03/29 10:51:30;;;;;;;1999.90;999.90;;;14.70;99.90;;;;;;5051273;28;20029;-76
2024/03/29 10:53:57;;;;;;;1999.90;999.90;;;14.70;99.90;;;;;;5052271;28;20378;-74
2024/03/29 10:56:23;;;;;;;1999.90;999.90;;;14.70;99.90;;;;;;5051053;28;20534;-73
2024/03/29 10:58:50;;;;;;;1999.90;999.90;;;14.60;99.90;;;;;;5051884;28;20025;-73
2024/03/29 11:01:16;;;;;;;1999.90;999.90;;;14.60;99.90;;;;;;5033838;28;20045;-74
2024/03/29 11:03:48;;;;;;;1999.90;999.90;;;14.50;99.90;;;;;;5051074;28;20453;-73
2024/03/29 11:06:14;;;;;;;1999.90;999.90;;;14.50;99.90;;;;;;5051410;28;20489;-73
2024/03/29 11:08:45;;;;;;;1999.90;999.90;;;14.50;99.90;;;;;;5052803;28;20029;-77
2024/03/29 11:11:11;;;;;;;1999.90;999.90;;;14.50;99.90;;;;;;5046408;28;20053;-74
2024/03/29 11:14:02;;;;;;;1999.90;999.90;;;14.50;99.90;;;;;;5052510;28;20036;-74
2024/03/29 11:16:28;;;;;;;1999.90;999.90;;;14.50;99.90;;;;;;5050338;28;20052;-74
2024/03/29 11:18:54;;;;;;;1999.90;999.90;;;14.60;99.90;;;;;;5051653;28;20025;-77
2024/03/29 11:21:20;;;;;;;1999.90;999.90;;;14.60;99.90;;;;;;5041456;28;20379;-75
2024/03/29 11:23:50;;;;;;;1999.90;999.90;;;14.60;99.90;;;;;;5031907;28;20037;-76
2024/03/29 11:26:16;;;;;;;1999.90;999.90;;;14.70;99.90;;;;;;5040879;28;20040;-74
2024/03/29 11:28:48;;;;;;;1999.90;999.90;;;14.70;99.90;;;;;;5050545;28;20033;-74
2024/03/29 11:31:15;;;;;;;1999.90;999.90;;;14.80;99.90;;;;;;5049062;28;20044;-77
2024/03/29 11:33:44;;;;;;;1999.90;999.90;;;14.80;99.90;;;;;;5042206;28;20036;-76
2024/03/29 11:36:14;;;;;;;1999.90;999.90;;;14.90;99.90;;;;;;5051987;28;20517;-76
2024/03/29 11:38:40;;;;;;;1999.90;999.90;;;14.90;99.90;;;;;;5032579;28;20037;-75
2024/03/29 11:41:10;;;;;;;1999.90;999.90;;;14.90;99.90;;;;;;5036258;28;20574;-76
2024/03/29 11:43:37;;;;;;;1999.90;999.90;;;15.00;99.90;;;;;;5031655;28;20021;-76
2024/03/29 11:46:06;;;;;;;1999.90;999.90;;;15.00;99.90;;;;;;5036047;28;20354;-74
2024/03/29 11:48:32;;;;;;;1999.90;999.90;;;15.00;99.90;;;;;;5052268;28;20028;-74
2024/03/29 11:50:59;;;;;;;1999.90;999.90;;;15.00;99.90;;;;;;5050791;28;20036;-74
2024/03/29 11:53:27;;;;;;;1999.90;999.90;;;15.10;99.90;;;;;;5051883;28;20127;-76
2024/03/29 11:55:54;;;;;;;1999.90;999.90;;;15.20;99.90;;;;;;5051372;28;20492;-74
2024/03/29 11:58:23;;;;;;;1999.90;999.90;;;15.20;99.90;;;;;;5040385;28;20394;-74
2024/03/29 12:00:50;;;;;;;1999.90;999.90;;;15.20;99.90;;;;;;5035294;28;20033;-74
2024/03/29 12:03:17;;;;;;;1999.90;999.90;;;15.20;99.90;;;;;;5050844;28;20041;-75
2024/03/29 12:05:48;;;;;;;1999.90;999.90;;;15.20;99.90;;;;;;5050028;28;20056;-74
2024/03/29 12:08:14;;;;;;;1999.90;999.90;;;15.20;99.90;;;;;;5039643;28;20029;-74
2024/03/29 12:10:40;;;;;;;1999.90;999.90;;;15.20;99.90;;;;;;5042729;28;20036;-76
2024/03/29 12:13:07;;;;;;;1999.90;999.90;;;15.20;99.90;;;;;;5049572;28;20032;-76
2024/03/29 12:15:33;;;;;;;1999.90;999.90;;;15.20;99.90;;;;;;5032254;28;20104;-74
2024/03/29 12:18:01;;;;;;;1999.90;999.90;;;15.10;99.90;;;;;;5030116;28;20048;-72
2024/03/29 12:20:28;;;;;;;1999.90;999.90;;;15.10;99.90;;;;;;5029670;28;20045;-71
2024/03/29 12:22:54;;;;;;;1999.90;999.90;;;15.10;99.90;;;;;;5029437;28;20040;-77
2024/03/29 12:25:21;;;;;;;1999.90;999.90;;;15.10;99.90;;;;;;5030017;28;20421;-72
2024/03/29 12:27:47;;;;;;;1999.90;999.90;;;15.10;99.90;;;;;;5031371;28;20046;-72
2024/03/29 12:30:13;;;;;;;1999.90;999.90;;;15.10;99.90;;;;;;5016632;28;20033;-72
2024/03/29 12:32:40;;;;;;;1999.90;999.90;;;15.10;99.90;;;;;;5030347;28;20486;-72